createdAt,value
2019-05-30T00:00:18.066Z,64.21
2019-05-30T00:01:02.395Z,64.31
2019-05-30T00:02:02.933Z,64.31
2019-05-30T00:03:02.682Z,64.12
2019-05-30T00:04:03.170Z,64.31
2019-05-30T00:05:02.809Z,63.92
2019-05-30T00:06:02.888Z,64.02
2019-05-30T00:07:02.890Z,63.54
2019-05-30T00:08:02.657Z,63.54
2019-05-30T00:09:03.140Z,63.83
2019-05-30T00:10:02.810Z,63.16
2019-05-30T00:11:02.641Z,63.45
2019-05-30T00:12:01.136Z,63.07
2019-05-30T00:13:02.521Z,63.16
2019-05-30T00:14:01.325Z,63.26
2019-05-30T00:15:01.304Z,62.88
2019-05-30T00:16:01.285Z,62.88
2019-05-30T00:17:01.027Z,62.4
2019-05-30T00:18:01.241Z,62.78
2019-05-30T00:19:01.215Z,61.95
2019-05-30T00:20:01.221Z,61.95
2019-05-30T00:21:01.184Z,61.92
2019-05-30T00:22:00.918Z,61.76
2019-05-30T00:23:01.238Z,61.95
2019-05-30T00:24:02.278Z,61.47
2019-05-30T00:25:02.511Z,61.38
2019-05-30T00:26:01.559Z,61.29
2019-05-30T00:27:02.312Z,61.57
2019-05-30T00:28:01.587Z,60.81
2019-05-30T00:29:02.419Z,60.81
2019-05-30T00:30:01.679Z,60.71
2019-05-30T00:31:00.973Z,60.71
2019-05-30T00:32:01.793Z,60.9
2019-05-30T00:33:03.393Z,60.52
2019-05-30T00:34:02.501Z,60.33
2019-05-30T00:35:02.139Z,60.61
2019-05-30T00:36:02.196Z,60.52
2019-05-30T00:37:02.175Z,60.61
2019-05-30T00:38:02.058Z,60.42
2019-05-30T00:39:02.095Z,60.33
2019-05-30T00:40:02.051Z,60.42
2019-05-30T00:41:01.972Z,60.24
2019-05-30T00:42:01.960Z,60.61
2019-05-30T00:43:01.900Z,60.52
2019-05-30T00:44:00.448Z,60.55
2019-05-30T00:45:00.419Z,60.36
2019-05-30T00:46:00.627Z,60.27
2019-05-30T00:47:00.717Z,60.27
2019-05-30T00:48:00.591Z,60.07
2019-05-30T00:49:00.637Z,60.36
2019-05-30T00:50:00.572Z,60.07
2019-05-30T00:51:00.756Z,59.88
2019-05-30T00:52:00.772Z,60.07
2019-05-30T00:53:01.203Z,59.98
2019-05-30T00:54:00.948Z,60.46
2019-05-30T00:55:00.843Z,60.27
2019-05-30T00:56:01.444Z,60.17
2019-05-30T00:57:00.987Z,59.98
2019-05-30T00:58:00.909Z,59.98
2019-05-30T00:59:01.102Z,59.69
2019-05-30T01:00:01.149Z,59.88
2019-05-30T01:01:02.650Z,59.98
2019-05-30T01:02:00.967Z,60.17
2019-05-30T01:03:05.213Z,59.88
2019-05-30T01:04:01.080Z,59.98
2019-05-30T01:05:01.241Z,59.98
2019-05-30T01:06:01.111Z,60.17
2019-05-30T01:07:01.433Z,60.07
2019-05-30T01:08:01.282Z,60.27
2019-05-30T01:09:01.442Z,60.27
2019-05-30T01:10:01.537Z,59.98
2019-05-30T01:11:01.304Z,60.27
2019-05-30T01:12:01.435Z,59.98
2019-05-30T01:13:03.078Z,59.98
2019-05-30T01:14:01.382Z,59.98
2019-05-30T01:15:01.252Z,59.88
2019-05-30T01:16:01.297Z,59.98
2019-05-30T01:17:01.352Z,60.07
2019-05-30T01:18:01.332Z,60.55
2019-05-30T01:19:00.874Z,60.46
2019-05-30T01:20:00.939Z,60.55
2019-05-30T01:21:01.198Z,60.27
2019-05-30T01:22:01.198Z,60.46
2019-05-30T01:23:01.196Z,60.46
2019-05-30T01:24:01.221Z,60.46
2019-05-30T01:24:59.799Z,60.55
2019-05-30T01:25:59.779Z,60.46
2019-05-30T01:26:59.758Z,60.46
2019-05-30T01:27:59.762Z,60.58
2019-05-30T01:28:59.723Z,60.55
2019-05-30T01:29:59.716Z,60.55
2019-05-30T01:31:09.951Z,60.46
2019-05-30T01:31:59.814Z,60.46
2019-05-30T01:33:00.079Z,60.55
2019-05-30T01:33:59.870Z,60.84
2019-05-30T01:35:00.011Z,60.93
2019-05-30T01:36:00.202Z,60.93
2019-05-30T01:36:59.965Z,60.93
2019-05-30T01:37:59.972Z,60.74
2019-05-30T01:39:00.082Z,60.68
2019-05-30T01:40:00.120Z,60.68
2019-05-30T01:41:00.175Z,60.49
2019-05-30T01:42:00.128Z,60.68
2019-05-30T01:43:00.301Z,60.96
2019-05-30T01:44:00.119Z,60.87
2019-05-30T01:45:00.470Z,61.25
2019-05-30T01:46:00.430Z,61.63
2019-05-30T01:47:00.549Z,61.63
2019-05-30T01:48:00.579Z,61.54
2019-05-30T01:49:00.507Z,61.35
2019-05-30T01:50:00.607Z,61.25
2019-05-30T01:51:00.720Z,61.63
2019-05-30T01:52:00.708Z,61.44
2019-05-30T01:53:00.303Z,61.44
2019-05-30T01:54:00.405Z,61.54
2019-05-30T01:55:00.386Z,61.92
2019-05-30T01:55:59.436Z,61.72
2019-05-30T01:56:59.130Z,62.21
2019-05-30T01:57:59.097Z,62.01
2019-05-30T01:58:59.078Z,61.72
2019-05-30T01:59:59.058Z,62.21
2019-05-30T02:01:13.382Z,62.11
2019-05-30T02:01:59.023Z,62.11
2019-05-30T02:02:58.992Z,62.21
2019-05-30T02:03:59.148Z,61.82
2019-05-30T02:04:58.952Z,61.92
2019-05-30T02:05:59.004Z,62.01
2019-05-30T02:06:59.242Z,62.11
2019-05-30T02:07:59.024Z,62.4
2019-05-30T02:08:59.178Z,62.68
2019-05-30T02:09:59.179Z,62.49
2019-05-30T02:10:59.168Z,62.4
2019-05-30T02:11:59.282Z,62.49
2019-05-30T02:12:59.264Z,62.87
2019-05-30T02:13:59.534Z,62.94
2019-05-30T02:14:59.383Z,62.97
2019-05-30T02:15:59.581Z,62.97
2019-05-30T02:16:59.583Z,63.6
2019-05-30T02:17:59.447Z,63.32
2019-05-30T02:18:59.511Z,63.13
2019-05-30T02:19:59.643Z,62.94
2019-05-30T02:20:59.538Z,63.64
2019-05-30T02:21:59.681Z,63.35
2019-05-30T02:22:59.646Z,63.6
2019-05-30T02:23:59.706Z,63.03
2019-05-30T02:24:59.687Z,63.13
2019-05-30T02:25:58.502Z,63.32
2019-05-30T02:26:58.482Z,63.8
2019-05-30T02:27:58.476Z,63.89
2019-05-30T02:28:58.445Z,63.7
2019-05-30T02:29:58.421Z,63.7
2019-05-30T02:30:58.398Z,63.99
2019-05-30T02:31:58.385Z,64.09
2019-05-30T02:32:58.356Z,64.18
2019-05-30T02:33:58.340Z,64.47
2019-05-30T02:34:58.316Z,64.47
2019-05-30T02:35:58.299Z,64.47
2019-05-30T02:36:58.282Z,64.47
2019-05-30T02:37:58.249Z,64.09
2019-05-30T02:38:58.231Z,64.47
2019-05-30T02:40:07.120Z,64.75
2019-05-30T02:40:58.193Z,64.75
2019-05-30T02:41:58.169Z,64.75
2019-05-30T02:42:58.151Z,64.65
2019-05-30T02:43:58.130Z,64.85
2019-05-30T02:44:58.112Z,64.94
2019-05-30T02:45:58.091Z,65.14
2019-05-30T02:46:58.073Z,65.14
2019-05-30T02:47:58.060Z,65.14
2019-05-30T02:49:04.229Z,65.04
2019-05-30T02:49:57.999Z,65.14
2019-05-30T02:50:57.978Z,65.71
2019-05-30T02:51:57.955Z,65.42
2019-05-30T02:52:57.937Z,65.23
2019-05-30T02:53:57.917Z,65.52
2019-05-30T02:54:57.903Z,65.23
2019-05-30T02:55:57.870Z,65.23
2019-05-30T02:56:57.860Z,65.52
2019-05-30T02:57:57.851Z,65.04
2019-05-30T02:58:57.855Z,65.04
2019-05-30T02:59:57.792Z,65.14
2019-05-30T03:00:57.773Z,65.23
2019-05-30T03:02:09.815Z,64.94
2019-05-30T03:02:57.734Z,65.04
2019-05-30T03:03:57.717Z,65.33
2019-05-30T03:04:57.681Z,65.23
2019-05-30T03:05:57.702Z,65.52
2019-05-30T03:06:57.658Z,65.61
2019-05-30T03:07:57.631Z,65.52
2019-05-30T03:08:57.599Z,65.23
2019-05-30T03:09:57.585Z,65.71
2019-05-30T03:10:57.562Z,65.52
2019-05-30T03:11:57.539Z,65.8
2019-05-30T03:12:57.513Z,65.9
2019-05-30T03:13:57.492Z,65.9
2019-05-30T03:14:57.474Z,66
2019-05-30T03:15:57.456Z,65.61
2019-05-30T03:16:57.434Z,66
2019-05-30T03:17:57.412Z,66
2019-05-30T03:18:57.389Z,65.71
2019-05-30T03:19:57.368Z,66.09
2019-05-30T03:20:57.344Z,66.09
2019-05-30T03:21:57.323Z,66.09
2019-05-30T03:22:57.304Z,66.19
2019-05-30T03:23:57.294Z,65.9
2019-05-30T03:24:57.266Z,65.8
2019-05-30T03:25:57.250Z,65.9
2019-05-30T03:26:57.216Z,66.47
2019-05-30T03:27:57.200Z,66.47
2019-05-30T03:28:57.174Z,66.28
2019-05-30T03:29:57.156Z,66.09
2019-05-30T03:30:57.139Z,66.03
2019-05-30T03:31:57.197Z,66.38
2019-05-30T03:33:43.909Z,66.31
2019-05-30T03:34:34.177Z,66.22
2019-05-30T03:35:44.513Z,66.31
2019-05-30T03:36:34.620Z,66.31
2019-05-30T03:37:34.132Z,66.13
2019-05-30T03:38:34.086Z,66.03
2019-05-30T03:39:34.059Z,65.93
2019-05-30T03:40:34.467Z,66.03
2019-05-30T03:41:34.007Z,66.22
2019-05-30T03:42:33.995Z,66.03
2019-05-30T03:43:33.975Z,66.5
2019-05-30T03:44:33.952Z,66.22
2019-05-30T03:45:33.694Z,65.93
2019-05-30T03:46:33.907Z,66.03
2019-05-30T03:47:33.897Z,66.31
2019-05-30T03:48:33.867Z,66.22
2019-05-30T03:49:33.873Z,66.22
2019-05-30T03:50:33.993Z,66.31
2019-05-30T03:51:33.802Z,66.22
2019-05-30T03:52:33.793Z,66.22
2019-05-30T03:53:33.767Z,66.5
2019-05-30T03:54:33.512Z,66.22
2019-05-30T03:55:33.723Z,66.13
2019-05-30T03:56:33.699Z,65.84
2019-05-30T03:57:33.673Z,66.31
2019-05-30T03:58:33.657Z,65.84
2019-05-30T03:59:33.632Z,65.93
2019-05-30T04:00:33.618Z,65.84
2019-05-30T04:01:33.597Z,66.03
2019-05-30T04:02:52.255Z,66.03
2019-05-30T04:03:33.553Z,65.93
2019-05-30T04:04:33.529Z,66.03
2019-05-30T04:05:33.516Z,65.93
2019-05-30T04:06:33.495Z,65.84
2019-05-30T04:07:33.468Z,65.64
2019-05-30T04:08:33.445Z,65.93
2019-05-30T04:09:33.438Z,65.84
2019-05-30T04:10:33.403Z,65.77
2019-05-30T04:11:33.421Z,65.84
2019-05-30T04:12:33.368Z,65.87
2019-05-30T04:13:33.349Z,65.87
2019-05-30T04:14:33.327Z,65.48
2019-05-30T04:15:33.305Z,65.39
2019-05-30T04:16:33.281Z,65.58
2019-05-30T04:17:33.265Z,65.77
2019-05-30T04:18:33.248Z,65.77
2019-05-30T04:19:33.228Z,65.11
2019-05-30T04:20:33.227Z,65.3
2019-05-30T04:21:33.173Z,65.2
2019-05-30T04:22:33.160Z,65.2
2019-05-30T04:23:33.133Z,65.01
2019-05-30T04:24:33.124Z,65.2
2019-05-30T04:25:33.095Z,65.11
2019-05-30T04:26:33.076Z,65.3
2019-05-30T04:27:33.054Z,65.3
2019-05-30T04:28:33.058Z,65.2
2019-05-30T04:29:33.024Z,65.01
2019-05-30T04:30:33.006Z,65.3
2019-05-30T04:31:32.972Z,65.2
2019-05-30T04:32:32.962Z,65.3
2019-05-30T04:33:36.081Z,65.77
2019-05-30T04:34:32.916Z,65.39
2019-05-30T04:35:32.903Z,65.39
2019-05-30T04:36:32.947Z,65.3
2019-05-30T04:37:33.455Z,65.77
2019-05-30T04:38:32.833Z,65.87
2019-05-30T04:39:33.375Z,65.97
2019-05-30T04:40:32.788Z,66.54
2019-05-30T04:41:32.772Z,66.63
2019-05-30T04:42:32.762Z,66.35
2019-05-30T04:43:32.724Z,66.44
2019-05-30T04:44:32.711Z,67.02
2019-05-30T04:45:32.684Z,67.02
2019-05-30T04:46:32.669Z,66.73
2019-05-30T04:47:32.647Z,67.02
2019-05-30T04:48:32.625Z,67.11
2019-05-30T04:49:32.608Z,67.69
2019-05-30T04:50:32.620Z,67.49
2019-05-30T04:51:32.560Z,67.59
2019-05-30T04:52:32.545Z,67.59
2019-05-30T04:53:32.524Z,67.69
2019-05-30T04:54:32.514Z,67.49
2019-05-30T04:55:32.248Z,67.59
2019-05-30T04:56:32.462Z,67.49
2019-05-30T04:57:32.444Z,67.49
2019-05-30T04:58:32.428Z,67.02
2019-05-30T04:59:32.404Z,67.02
2019-05-30T05:00:32.376Z,67.21
2019-05-30T05:01:32.369Z,67.3
2019-05-30T05:02:32.344Z,66.96
2019-05-30T05:03:48.164Z,67.05
2019-05-30T05:04:32.304Z,67.14
2019-05-30T05:05:32.085Z,67.14
2019-05-30T05:06:32.280Z,66.86
2019-05-30T05:07:33.307Z,67.14
2019-05-30T05:08:32.451Z,67.05
2019-05-30T05:09:32.205Z,66.86
2019-05-30T05:10:31.946Z,66.67
2019-05-30T05:11:32.172Z,66.86
2019-05-30T05:12:32.144Z,66.38
2019-05-30T05:13:32.123Z,66.38
2019-05-30T05:14:32.108Z,66.57
2019-05-30T05:15:32.087Z,66.57
2019-05-30T05:16:38.241Z,66.47
2019-05-30T05:17:32.051Z,66.38
2019-05-30T05:18:32.026Z,66.19
2019-05-30T05:19:32.007Z,66.09
2019-05-30T05:20:35.172Z,66.47
2019-05-30T05:21:31.966Z,66.03
2019-05-30T05:22:31.974Z,65.84
2019-05-30T05:23:31.937Z,66.13
2019-05-30T05:24:31.913Z,66.28
2019-05-30T05:25:31.647Z,66.22
2019-05-30T05:26:31.868Z,65.71
2019-05-30T05:27:31.856Z,65.94
2019-05-30T05:28:31.832Z,65.94
2019-05-30T05:29:31.813Z,65.94
2019-05-30T05:30:31.798Z,65.94
2019-05-30T05:31:31.771Z,65.84
2019-05-30T05:32:31.762Z,65.84
2019-05-30T05:33:31.737Z,66.03
2019-05-30T05:34:31.722Z,66.03
2019-05-30T05:35:31.699Z,66.13
2019-05-30T05:36:31.683Z,65.55
2019-05-30T05:37:31.660Z,65.36
2019-05-30T05:38:31.646Z,65.45
2019-05-30T05:39:31.627Z,65.65
2019-05-30T05:40:31.602Z,65.17
2019-05-30T05:41:31.593Z,64.98
2019-05-30T05:42:32.695Z,65.36
2019-05-30T05:43:31.548Z,65.17
2019-05-30T05:44:31.541Z,65.36
2019-05-30T05:45:31.529Z,65.26
2019-05-30T05:46:31.493Z,64.98
2019-05-30T05:47:31.489Z,64.88
2019-05-30T05:48:31.451Z,64.79
2019-05-30T05:49:31.433Z,64.79
2019-05-30T05:50:31.424Z,64.92
2019-05-30T05:51:31.489Z,64.72
2019-05-30T05:52:31.543Z,64.25
2019-05-30T05:53:31.470Z,64.05
2019-05-30T05:54:31.661Z,64.05
2019-05-30T05:55:31.333Z,64.53
2019-05-30T05:56:31.560Z,64.34
2019-05-30T05:57:31.603Z,64.53
2019-05-30T05:58:31.759Z,64.15
2019-05-30T05:59:31.704Z,64.15
2019-05-30T06:00:32.020Z,63.96
2019-05-30T06:01:32.583Z,63.67
2019-05-30T06:02:31.194Z,63.29
2019-05-30T06:03:31.177Z,63.67
2019-05-30T06:04:31.157Z,63.67
2019-05-30T06:05:31.146Z,63.22
2019-05-30T06:06:33.988Z,63.22
2019-05-30T06:07:31.106Z,63.42
2019-05-30T06:08:31.102Z,63.42
2019-05-30T06:09:31.199Z,63.42
2019-05-30T06:10:31.057Z,63.32
2019-05-30T06:11:31.328Z,63.51
2019-05-30T06:12:31.018Z,63.03
2019-05-30T06:13:31.491Z,62.93
2019-05-30T06:14:30.998Z,63.22
2019-05-30T06:15:31.433Z,62.74
2019-05-30T06:16:30.945Z,63.51
2019-05-30T06:17:31.728Z,63.03
2019-05-30T06:18:30.920Z,63.13
2019-05-30T06:19:47.626Z,63.03
2019-05-30T06:20:30.874Z,62.84
2019-05-30T06:21:30.854Z,63.22
2019-05-30T06:22:30.851Z,62.93
2019-05-30T06:23:30.859Z,62.65
2019-05-30T06:24:30.802Z,62.84
2019-05-30T06:25:35.124Z,62.74
2019-05-30T06:26:30.770Z,62.74
2019-05-30T06:27:30.753Z,62.84
2019-05-30T06:28:30.735Z,62.2
2019-05-30T06:29:30.807Z,62.77
2019-05-30T06:30:31.197Z,63.06
2019-05-30T06:31:31.090Z,62.87
2019-05-30T06:32:31.291Z,63.35
2019-05-30T06:33:31.555Z,63.83
2019-05-30T06:34:41.281Z,64.76
2019-05-30T06:35:31.900Z,65.05
2019-05-30T06:36:31.711Z,66
2019-05-30T06:37:31.708Z,66.67
2019-05-30T06:38:31.853Z,67.05
2019-05-30T06:39:31.984Z,67.82
2019-05-30T06:40:34.451Z,68.3
2019-05-30T06:41:30.518Z,68.11
2019-05-30T06:42:30.745Z,68.87
2019-05-30T06:43:30.661Z,68.49
2019-05-30T06:44:30.532Z,68.68
2019-05-30T06:45:30.812Z,68.59
2019-05-30T06:46:31.056Z,68.59
2019-05-30T06:47:30.989Z,68.78
2019-05-30T06:48:31.257Z,68.97
2019-05-30T06:49:31.947Z,69.26
2019-05-30T06:50:31.552Z,69.26
2019-05-30T06:51:31.473Z,69.35
2019-05-30T06:52:32.057Z,69.35
2019-05-30T06:53:31.562Z,69.35
2019-05-30T06:54:31.844Z,69.93
2019-05-30T06:55:31.801Z,69.45
2019-05-30T06:56:31.478Z,69.54
2019-05-30T06:57:30.005Z,69.64
2019-05-30T06:58:48.628Z,69.45
2019-05-30T06:59:31.774Z,69.17
2019-05-30T07:00:30.557Z,69.45
2019-05-30T07:01:30.360Z,69.35
2019-05-30T07:02:30.854Z,69.07
2019-05-30T07:03:30.899Z,68.78
2019-05-30T07:04:51.272Z,68.68
2019-05-30T07:05:34.778Z,68.4
2019-05-30T07:06:33.342Z,68.49
2019-05-30T07:07:31.584Z,68.01
2019-05-30T07:08:31.274Z,68.33
2019-05-30T07:09:31.486Z,68.52
2019-05-30T07:10:31.209Z,67.95
2019-05-30T07:11:31.480Z,68.05
2019-05-30T07:12:31.087Z,67.76
2019-05-30T07:13:31.468Z,67.57
2019-05-30T07:14:29.933Z,67.66
2019-05-30T07:15:29.918Z,67.28
2019-05-30T07:16:29.904Z,66.89
2019-05-30T07:17:29.892Z,67.18
2019-05-30T07:18:36.562Z,66.45
2019-05-30T07:19:29.847Z,66.64
2019-05-30T07:20:29.763Z,66.71
2019-05-30T07:21:30.047Z,66.55
2019-05-30T07:22:30.134Z,66.74
2019-05-30T07:23:30.341Z,66.26
2019-05-30T07:24:30.158Z,65.78
2019-05-30T07:25:30.278Z,65.97
2019-05-30T07:26:30.095Z,66.16
2019-05-30T07:27:30.213Z,66.06
2019-05-30T07:28:30.282Z,66.16
2019-05-30T07:29:30.421Z,66.06
2019-05-30T07:30:30.328Z,66.16
2019-05-30T07:31:30.441Z,66.16
2019-05-30T07:32:30.320Z,65.68
2019-05-30T07:33:30.423Z,65.39
2019-05-30T07:34:30.531Z,65.68
2019-05-30T07:35:30.364Z,66.06
2019-05-30T07:36:30.598Z,66.16
2019-05-30T07:37:30.623Z,66.16
2019-05-30T07:38:32.524Z,66.26
2019-05-30T07:39:35.640Z,66.26
2019-05-30T07:40:30.441Z,65.78
2019-05-30T07:41:30.567Z,65.97
2019-05-30T07:42:30.639Z,65.68
2019-05-30T07:43:33.461Z,66.06
2019-05-30T07:44:29.442Z,66.26
2019-05-30T07:45:29.431Z,66.35
2019-05-30T07:46:29.417Z,66.26
2019-05-30T07:47:30.493Z,66.74
2019-05-30T07:48:30.435Z,66.74
2019-05-30T07:49:30.566Z,66.8
2019-05-30T07:50:30.720Z,67.22
2019-05-30T07:51:30.531Z,67.22
2019-05-30T07:52:30.525Z,67.09
2019-05-30T07:53:29.293Z,67.02
2019-05-30T07:54:29.280Z,67.22
2019-05-30T07:55:29.319Z,67.02
2019-05-30T07:56:29.350Z,66.74
2019-05-30T07:57:30.413Z,66.83
2019-05-30T07:58:29.425Z,67.22
2019-05-30T07:59:30.401Z,67.02
2019-05-30T08:00:29.858Z,67.02
2019-05-30T08:01:30.416Z,66.93
2019-05-30T08:02:29.951Z,67.22
2019-05-30T08:03:30.389Z,67.02
2019-05-30T08:04:29.806Z,67.02
2019-05-30T08:05:29.190Z,67.06
2019-05-30T08:06:29.835Z,67.44
2019-05-30T08:07:29.074Z,67.73
2019-05-30T08:08:30.471Z,67.83
2019-05-30T08:09:29.337Z,67.63
2019-05-30T08:10:30.129Z,67.83
2019-05-30T08:11:29.198Z,67.44
2019-05-30T08:12:30.349Z,67.54
2019-05-30T08:13:29.379Z,66.86
2019-05-30T08:14:29.373Z,67.06
2019-05-30T08:15:29.711Z,66.77
2019-05-30T08:16:29.473Z,66.86
2019-05-30T08:17:29.697Z,66.71
2019-05-30T08:18:31.564Z,66.61
2019-05-30T08:19:30.134Z,66.33
2019-05-30T08:20:30.036Z,66.61
2019-05-30T08:21:30.114Z,65.94
2019-05-30T08:22:30.280Z,66.42
2019-05-30T08:23:29.955Z,65.84
2019-05-30T08:24:30.052Z,65.94
2019-05-30T08:25:29.996Z,66.03
2019-05-30T08:26:29.765Z,66.33
2019-05-30T08:27:29.926Z,66.71
2019-05-30T08:28:29.134Z,66.71
2019-05-30T08:29:29.837Z,66.33
2019-05-30T08:30:30.264Z,66.33
2019-05-30T08:31:28.742Z,66.13
2019-05-30T08:32:28.709Z,65.84
2019-05-30T08:33:29.527Z,66.13
2019-05-30T08:34:28.689Z,66.03
2019-05-30T08:35:49.434Z,66.03
2019-05-30T08:36:28.801Z,65.94
2019-05-30T08:37:28.974Z,66.13
2019-05-30T08:38:29.011Z,65.75
2019-05-30T08:39:28.942Z,65.36
2019-05-30T08:40:29.105Z,65.17
2019-05-30T08:41:29.092Z,65.27
2019-05-30T08:42:31.325Z,65.08
2019-05-30T08:43:29.246Z,64.34
2019-05-30T08:44:29.376Z,64.63
2019-05-30T08:45:29.524Z,64.43
2019-05-30T08:46:30.114Z,64.25
2019-05-30T08:47:29.707Z,64.05
2019-05-30T08:48:29.627Z,64.53
2019-05-30T08:49:28.477Z,64.4
2019-05-30T08:50:28.506Z,64.5
2019-05-30T08:51:28.385Z,65.17
2019-05-30T08:52:28.436Z,65.36
2019-05-30T08:53:28.442Z,65.65
2019-05-30T08:54:28.410Z,65.36
2019-05-30T08:55:28.400Z,65.65
2019-05-30T08:56:32.904Z,65.36
2019-05-30T08:57:28.370Z,65.46
2019-05-30T08:58:28.350Z,64.89
2019-05-30T08:59:28.336Z,65.27
2019-05-30T09:00:28.322Z,64.4
2019-05-30T09:01:28.314Z,64.5
2019-05-30T09:02:28.296Z,63.96
2019-05-30T09:03:28.302Z,63.86
2019-05-30T09:04:28.264Z,63.28
2019-05-30T09:05:28.254Z,63.02
2019-05-30T09:06:28.236Z,62.16
2019-05-30T09:07:31.268Z,61.78
2019-05-30T09:08:28.210Z,61.71
2019-05-30T09:09:28.215Z,60.75
2019-05-30T09:10:28.191Z,60.94
2019-05-30T09:11:28.178Z,60.59
2019-05-30T09:12:28.166Z,60.39
2019-05-30T09:13:28.157Z,60.21
2019-05-30T09:14:28.150Z,59.92
2019-05-30T09:15:28.128Z,60.01
2019-05-30T09:16:28.108Z,60.21
2019-05-30T09:17:28.106Z,59.92
2019-05-30T09:18:28.192Z,59.72
2019-05-30T09:19:28.075Z,59.44
2019-05-30T09:20:30.726Z,59.05
2019-05-30T09:21:28.136Z,58.7
2019-05-30T09:22:28.041Z,58.7
2019-05-30T09:23:28.031Z,58.86
2019-05-30T09:24:28.104Z,58.02
2019-05-30T09:25:28.004Z,57.35
2019-05-30T09:26:27.998Z,57.64
2019-05-30T09:27:27.979Z,56.99
2019-05-30T09:28:27.970Z,56.6
2019-05-30T09:29:27.955Z,56.51
2019-05-30T09:30:27.948Z,56.7
2019-05-30T09:31:27.949Z,56.51
2019-05-30T09:32:27.932Z,56.6
2019-05-30T09:33:28.201Z,56.87
2019-05-30T09:34:27.967Z,56.67
2019-05-30T09:35:27.897Z,56.48
2019-05-30T09:36:27.881Z,56.51
2019-05-30T09:37:27.875Z,56.6
2019-05-30T09:38:27.857Z,56.51
2019-05-30T09:39:29.773Z,56.58
2019-05-30T09:40:27.847Z,56.96
2019-05-30T09:41:27.827Z,56.87
2019-05-30T09:42:27.813Z,56.87
2019-05-30T09:43:27.799Z,57.25
2019-05-30T09:44:27.799Z,57.15
2019-05-30T09:45:27.787Z,57.15
2019-05-30T09:46:27.774Z,56.67
2019-05-30T09:47:27.761Z,56.67
2019-05-30T09:48:27.751Z,56.58
2019-05-30T09:49:27.731Z,56.87
2019-05-30T09:50:27.728Z,57.35
2019-05-30T09:51:27.730Z,57.42
2019-05-30T09:52:27.710Z,57.9
2019-05-30T09:53:27.685Z,58.09
2019-05-30T09:54:27.690Z,58.57
2019-05-30T09:55:27.670Z,58.92
2019-05-30T09:56:27.650Z,59.31
2019-05-30T09:57:27.649Z,60.17
2019-05-30T09:58:27.628Z,60.37
2019-05-30T09:59:27.613Z,60.34
2019-05-30T10:00:28.057Z,60.66
2019-05-30T10:01:27.593Z,61.11
2019-05-30T10:02:27.711Z,61.01
2019-05-30T10:03:27.562Z,61.4
2019-05-30T10:04:27.591Z,61.49
2019-05-30T10:05:27.579Z,61.87
2019-05-30T10:06:32.124Z,62.16
2019-05-30T10:07:27.503Z,62.26
2019-05-30T10:08:27.494Z,62.45
2019-05-30T10:09:27.482Z,62.55
2019-05-30T10:10:27.468Z,61.78
2019-05-30T10:11:27.804Z,62.29
2019-05-30T10:12:27.439Z,61.52
2019-05-30T10:13:27.433Z,61.71
2019-05-30T10:14:27.412Z,61.43
2019-05-30T10:15:27.404Z,60.88
2019-05-30T10:16:27.395Z,60.88
2019-05-30T10:17:27.383Z,60.21
2019-05-30T10:18:27.450Z,60.39
2019-05-30T10:19:27.357Z,60.24
2019-05-30T10:20:27.339Z,59.47
2019-05-30T10:21:27.328Z,58.79
2019-05-30T10:22:27.314Z,58.98
2019-05-30T10:23:27.307Z,57.95
2019-05-30T10:24:27.305Z,58.34
2019-05-30T10:25:27.323Z,58.15
2019-05-30T10:26:27.265Z,58.31
2019-05-30T10:27:27.254Z,58.12
2019-05-30T10:28:27.244Z,57.76
2019-05-30T10:29:27.234Z,57.37
2019-05-30T10:30:27.225Z,57.76
2019-05-30T10:31:27.213Z,57.37
2019-05-30T10:32:27.195Z,57.67
2019-05-30T10:33:27.214Z,57.57
2019-05-30T10:34:27.180Z,57.37
2019-05-30T10:35:29.782Z,57.37
2019-05-30T10:36:27.158Z,58.4
2019-05-30T10:37:27.143Z,58.7
2019-05-30T10:38:27.128Z,59.17
2019-05-30T10:39:27.118Z,59.53
2019-05-30T10:40:27.102Z,59.82
2019-05-30T10:41:27.091Z,60.46
2019-05-30T10:42:27.081Z,60.37
2019-05-30T10:43:27.065Z,60.66
2019-05-30T10:44:27.057Z,61.14
2019-05-30T10:45:27.038Z,61.04
2019-05-30T10:46:27.026Z,61.52
2019-05-30T10:47:27.016Z,61.71
2019-05-30T10:48:27.005Z,61.91
2019-05-30T10:49:37.189Z,61.81
2019-05-30T10:50:26.982Z,61.61
2019-05-30T10:51:26.965Z,62.16
2019-05-30T10:52:26.967Z,61.91
2019-05-30T10:53:26.772Z,62
2019-05-30T10:54:26.920Z,61.71
2019-05-30T10:55:26.962Z,62
2019-05-30T10:56:26.891Z,61.23
2019-05-30T10:57:26.887Z,61.23
2019-05-30T10:58:26.864Z,61.16
2019-05-30T10:59:26.849Z,61.07
2019-05-30T11:00:26.840Z,61.91
2019-05-30T11:01:26.848Z,61.81
2019-05-30T11:02:26.810Z,62
2019-05-30T11:03:26.826Z,61.61
2019-05-30T11:04:26.790Z,61.61
2019-05-30T11:05:26.777Z,62
2019-05-30T11:06:26.754Z,62.48
2019-05-30T11:07:26.742Z,63.15
2019-05-30T11:08:26.727Z,62.96
2019-05-30T11:09:26.711Z,63.25
2019-05-30T11:10:26.705Z,63.35
2019-05-30T11:11:26.692Z,63.54
2019-05-30T11:12:26.680Z,63.35
2019-05-30T11:13:26.659Z,63.6
2019-05-30T11:14:26.647Z,63.45
2019-05-30T11:15:26.638Z,64.02
2019-05-30T11:16:26.622Z,64.76
2019-05-30T11:17:26.607Z,64.76
2019-05-30T11:18:26.594Z,65.23
2019-05-30T11:19:26.577Z,65.33
2019-05-30T11:20:26.562Z,65.78
2019-05-30T11:21:26.542Z,65.59
2019-05-30T11:22:26.611Z,65.43
2019-05-30T11:23:26.517Z,65.59
2019-05-30T11:24:26.503Z,65.4
2019-05-30T11:25:26.484Z,65.72
2019-05-30T11:26:26.478Z,65.72
2019-05-30T11:27:26.456Z,65.53
2019-05-30T11:28:26.447Z,65.53
2019-05-30T11:29:26.427Z,65.05
2019-05-30T11:30:26.478Z,65.14
2019-05-30T11:31:26.400Z,65.62
2019-05-30T11:32:26.391Z,65.72
2019-05-30T11:33:26.371Z,66.1
2019-05-30T11:34:26.360Z,65.69
2019-05-30T11:35:26.505Z,66.26
2019-05-30T11:36:26.489Z,66.39
2019-05-30T11:37:26.310Z,65.72
2019-05-30T11:38:26.296Z,65.91
2019-05-30T11:39:26.303Z,65.33
2019-05-30T11:40:26.284Z,65.62
2019-05-30T11:41:26.269Z,65.43
2019-05-30T11:42:26.236Z,65.72
2019-05-30T11:43:26.246Z,65.43
2019-05-30T11:44:26.206Z,65.62
2019-05-30T11:45:26.197Z,65.62
2019-05-30T11:46:26.217Z,65.43
2019-05-30T11:47:26.173Z,65.23
2019-05-30T11:48:26.163Z,65.81
2019-05-30T11:49:25.909Z,65.91
2019-05-30T11:50:26.120Z,65.81
2019-05-30T11:51:26.110Z,65.62
2019-05-30T11:52:26.100Z,65.81
2019-05-30T11:53:26.081Z,66.2
2019-05-30T11:54:26.064Z,66.2
2019-05-30T11:55:26.053Z,65.53
2019-05-30T11:56:26.067Z,65.62
2019-05-30T11:57:26.020Z,65.43
2019-05-30T11:58:25.768Z,65.17
2019-05-30T11:59:26.005Z,65.27
2019-05-30T12:00:25.975Z,64.89
2019-05-30T12:01:25.964Z,64.6
2019-05-30T12:02:25.952Z,64.6
2019-05-30T12:03:29.115Z,65.37
2019-05-30T12:04:25.809Z,64.98
2019-05-30T12:05:25.719Z,65.37
2019-05-30T12:06:25.837Z,65.66
2019-05-30T12:07:38.832Z,65.56
2019-05-30T12:08:26.029Z,65.66
2019-05-30T12:09:25.822Z,65.66
2019-05-30T12:10:25.775Z,65.56
2019-05-30T12:11:25.828Z,65.66
2019-05-30T12:12:25.813Z,65.46
2019-05-30T12:13:25.810Z,65.27
2019-05-30T12:14:25.790Z,64.98
2019-05-30T12:15:25.538Z,65.27
2019-05-30T12:16:25.754Z,64.6
2019-05-30T12:17:25.742Z,64.63
2019-05-30T12:18:25.726Z,63.67
2019-05-30T12:19:25.741Z,63.28
2019-05-30T12:20:25.714Z,63.7
2019-05-30T12:21:25.478Z,63.41
2019-05-30T12:22:25.674Z,63.12
2019-05-30T12:23:25.663Z,63.41
2019-05-30T12:24:25.650Z,63.02
2019-05-30T12:25:25.635Z,62.93
2019-05-30T12:26:25.624Z,62.45
2019-05-30T12:27:25.629Z,62.38
2019-05-30T12:28:25.608Z,62.64
2019-05-30T12:29:25.596Z,62.26
2019-05-30T12:30:25.591Z,62.93
2019-05-30T12:31:25.563Z,63.12
2019-05-30T12:32:25.554Z,63.02
2019-05-30T12:33:25.541Z,63.57
2019-05-30T12:34:25.551Z,63.28
2019-05-30T12:35:25.515Z,63.95
2019-05-30T12:36:25.501Z,63.95
2019-05-30T12:37:26.020Z,64.82
2019-05-30T12:38:25.472Z,64.73
2019-05-30T12:39:25.480Z,64.73
2019-05-30T12:40:25.445Z,64.63
2019-05-30T12:41:25.438Z,65.11
2019-05-30T12:42:25.426Z,65.01
2019-05-30T12:43:25.408Z,65.2
2019-05-30T12:44:25.396Z,65.59
2019-05-30T12:45:25.383Z,65.59
2019-05-30T12:46:25.372Z,65.2
2019-05-30T12:47:25.354Z,65.78
2019-05-30T12:48:25.348Z,65.78
2019-05-30T12:49:25.342Z,66.36
2019-05-30T12:50:25.317Z,65.94
2019-05-30T12:51:25.305Z,66.61
2019-05-30T12:52:25.286Z,66.91
2019-05-30T12:53:25.284Z,67.29
2019-05-30T12:54:25.284Z,67.48
2019-05-30T12:55:25.243Z,67.38